createdAt,value
2023-04-22T00:02:04.078Z,3.25
2023-04-22T00:04:34.241Z,3.28
2023-04-22T00:07:02.586Z,3.50
2023-04-22T00:09:32.439Z,3.80
2023-04-22T00:12:09.774Z,3.38
2023-04-22T00:14:39.993Z,3.10
2023-04-22T00:17:28.048Z,3.25
2023-04-22T00:19:56.213Z,3.70
2023-04-22T00:22:23.194Z,4.13
2023-04-22T00:24:53.255Z,3.80
2023-04-22T00:27:23.288Z,4.13
2023-04-22T00:29:53.035Z,5.00
2023-04-22T00:32:23.667Z,5.55
2023-04-22T00:34:53.867Z,4.68
2023-04-22T00:37:25.454Z,5.13
2023-04-22T00:40:04.000Z,5.07
2023-04-22T00:42:43.252Z,5.15
2023-04-22T00:45:12.130Z,5.13
2023-04-22T00:47:39.922Z,5.07
2023-04-22T00:50:16.879Z,5.38
2023-04-22T00:52:44.963Z,6.30
2023-04-22T00:55:22.280Z,5.82
2023-04-22T00:57:57.947Z,6.00
2023-04-22T01:00:28.865Z,5.45
2023-04-22T01:02:58.351Z,6.00
2023-04-22T01:05:33.434Z,5.60
2023-04-22T01:08:02.973Z,6.03
2023-04-22T01:10:33.387Z,5.70
2023-04-22T01:13:10.440Z,5.38
2023-04-22T01:15:43.153Z,5.97
2023-04-22T01:18:10.463Z,5.30
2023-04-22T01:20:45.273Z,6.10
2023-04-22T01:23:23.118Z,6.57
2023-04-22T01:25:52.553Z,7.80
2023-04-22T01:28:28.494Z,8.90
2023-04-22T01:31:09.806Z,8.10
2023-04-22T01:33:40.557Z,7.57
2023-04-22T01:36:12.824Z,7.40
2023-04-22T01:38:41.124Z,7.70
2023-04-22T01:41:17.330Z,7.20
2023-04-22T01:43:52.094Z,6.18
2023-04-22T01:46:22.379Z,6.93
2023-04-22T01:48:52.298Z,5.25
2023-04-22T01:51:25.842Z,6.72
2023-04-22T01:54:01.709Z,5.90
2023-04-22T01:56:29.527Z,5.93
2023-04-22T01:59:02.189Z,5.47
2023-04-22T02:01:44.825Z,6.05
2023-04-22T02:04:22.018Z,5.55
2023-04-22T02:07:01.373Z,5.47
2023-04-22T02:14:40.299Z,5.43
2023-04-22T02:17:24.411Z,5.28
2023-04-22T02:20:06.610Z,5.60
2023-04-22T02:22:38.531Z,5.22
2023-04-22T02:25:12.596Z,5.20
2023-04-22T02:27:45.180Z,5.38
2023-04-22T02:30:18.973Z,5.45
2023-04-22T02:33:00.020Z,6.05
2023-04-22T02:35:39.020Z,5.43
2023-04-22T02:38:12.048Z,5.57
2023-04-22T02:40:44.650Z,5.57
2023-04-22T02:43:25.077Z,6.22
2023-04-22T02:46:24.618Z,5.13
2023-04-22T02:48:59.415Z,6.05
2023-04-22T02:51:35.961Z,5.95
2023-04-22T02:54:10.860Z,6.43
2023-04-22T02:56:45.562Z,6.00
2023-04-22T02:59:20.610Z,5.45
2023-04-22T03:02:09.578Z,4.80
2023-04-22T03:05:07.980Z,4.65
2023-04-22T03:07:52.298Z,5.22
2023-04-22T03:10:33.236Z,4.60
2023-04-22T03:13:31.523Z,5.82
2023-04-22T03:16:03.702Z,4.80
2023-04-22T03:18:39.487Z,5.10
2023-04-22T03:21:12.387Z,5.45
2023-04-22T03:23:52.337Z,5.75
2023-04-22T03:26:39.294Z,5.72
2023-04-22T03:29:08.412Z,5.90
2023-04-22T03:31:45.493Z,6.53
2023-04-22T03:34:23.321Z,5.57
2023-04-22T03:36:56.675Z,5.15
2023-04-22T03:39:35.515Z,6.15
2023-04-22T03:42:11.472Z,5.22
2023-04-22T03:44:48.446Z,6.10
2023-04-22T03:47:30.610Z,4.90
2023-04-22T03:50:16.620Z,6.55
2023-04-22T03:52:55.915Z,5.40
2023-04-22T03:55:42.228Z,5.57
2023-04-22T03:58:19.808Z,5.10
2023-04-22T04:00:56.822Z,4.78
2023-04-22T04:03:35.603Z,5.18
2023-04-22T04:06:43.290Z,4.85
2023-04-22T04:09:26.262Z,4.68
2023-04-22T04:12:05.156Z,4.88
2023-04-22T04:14:45.834Z,4.47
2023-04-22T04:17:18.354Z,4.72
2023-04-22T04:19:56.474Z,4.90
2023-04-22T04:22:49.360Z,4.68
2023-04-22T04:25:56.603Z,4.97
2023-04-22T04:28:55.444Z,4.82
2023-04-22T04:31:30.498Z,5.78
2023-04-22T04:34:31.446Z,5.13
2023-04-22T04:40:22.354Z,5.55
2023-04-22T04:43:22.420Z,5.22
2023-04-22T04:45:57.790Z,4.82
2023-04-22T04:48:37.456Z,5.05
2023-04-22T04:51:38.238Z,6.10
2023-04-22T05:00:00.331Z,5.05
2023-04-22T05:03:33.687Z,5.82
2023-04-22T05:06:11.805Z,5.13
2023-04-22T05:11:26.493Z,5.72
2023-04-22T05:14:18.512Z,5.03
2023-04-22T05:17:05.461Z,5.40
2023-04-22T05:19:46.238Z,5.90
2023-04-22T05:26:03.244Z,7.25
2023-04-22T05:28:39.467Z,5.57
2023-04-22T05:31:13.523Z,5.50
2023-04-22T05:44:00.640Z,5.32
2023-04-22T05:46:41.029Z,5.50
2023-04-22T05:49:29.981Z,5.50
2023-04-22T05:52:19.930Z,5.32
2023-04-22T05:55:33.783Z,6.63
2023-04-22T05:58:16.182Z,6.13
2023-04-22T06:00:54.775Z,6.18
2023-04-22T06:03:42.128Z,6.03
2023-04-22T06:06:16.741Z,5.75
2023-04-22T06:08:59.992Z,6.38
2023-04-22T06:11:32.078Z,6.55
2023-04-22T06:17:03.956Z,7.53
2023-04-22T06:19:38.342Z,8.20
2023-04-22T06:22:38.606Z,7.93
2023-04-22T06:25:13.594Z,8.95
2023-04-22T06:27:54.104Z,8.48
2023-04-22T06:30:27.159Z,9.15
2023-04-22T06:32:57.181Z,11.48
2023-04-22T06:35:28.193Z,10.27
2023-04-22T06:38:02.001Z,12.30
2023-04-22T06:40:45.518Z,11.35
2023-04-22T06:43:57.087Z,10.27
2023-04-22T06:50:53.086Z,10.97
2023-04-22T06:53:49.572Z,9.48
2023-04-22T06:56:25.107Z,8.55
2023-04-22T06:59:01.898Z,7.97
2023-04-22T07:01:29.918Z,8.03
2023-04-22T07:03:57.570Z,9.45
2023-04-22T07:06:31.260Z,9.40
2023-04-22T07:09:12.269Z,8.57
2023-04-22T07:11:42.637Z,8.18
2023-04-22T07:14:46.520Z,8.63
2023-04-22T07:17:13.277Z,8.63
2023-04-22T07:19:40.320Z,8.13
2023-04-22T07:22:08.059Z,9.10
2023-04-22T07:24:34.790Z,9.25
2023-04-22T07:27:03.141Z,10.43
2023-04-22T07:29:29.977Z,8.68
2023-04-22T07:31:56.793Z,8.85
2023-04-22T07:34:23.629Z,9.25
2023-04-22T07:36:53.588Z,9.15
2023-04-22T07:39:20.578Z,10.30
2023-04-22T07:41:47.340Z,9.95
2023-04-22T07:44:17.327Z,8.98
2023-04-22T07:46:44.166Z,10.32
2023-04-22T07:49:13.853Z,9.13
2023-04-22T07:51:41.123Z,9.50
2023-04-22T07:54:08.103Z,9.45
2023-04-22T07:56:35.593Z,9.13
2023-04-22T07:59:03.341Z,9.55
2023-04-22T08:01:32.681Z,8.98
2023-04-22T08:03:59.876Z,10.82
2023-04-22T08:06:28.191Z,9.68
2023-04-22T08:08:55.071Z,10.70
2023-04-22T08:11:22.025Z,9.43
2023-04-22T08:13:48.858Z,9.40
2023-04-22T08:16:15.732Z,9.13
2023-04-22T08:18:42.536Z,9.90
2023-04-22T08:21:09.386Z,9.40
2023-04-22T08:23:36.119Z,10.07
2023-04-22T08:26:03.373Z,9.18
2023-04-22T08:28:30.452Z,9.70
2023-04-22T08:30:57.399Z,9.68
2023-04-22T08:33:26.564Z,9.90
2023-04-22T08:35:54.023Z,10.18
2023-04-22T08:38:21.022Z,9.52
2023-04-22T08:40:47.966Z,11.00
2023-04-22T08:43:15.001Z,9.77
2023-04-22T08:45:42.460Z,9.82
2023-04-22T08:48:09.716Z,9.27
2023-04-22T08:50:39.474Z,10.15
2023-04-22T08:53:06.278Z,7.65
2023-04-22T08:55:34.526Z,9.07
2023-04-22T08:58:01.924Z,10.57
2023-04-22T09:00:28.818Z,8.88
2023-04-22T09:02:56.633Z,9.45
2023-04-22T09:05:27.728Z,9.85
2023-04-22T09:07:55.264Z,8.00
2023-04-22T09:10:22.412Z,8.63
2023-04-22T09:12:49.598Z,9.52
2023-04-22T09:15:16.640Z,8.38
2023-04-22T09:17:46.691Z,8.15
2023-04-22T09:20:15.362Z,9.45
2023-04-22T09:22:44.719Z,7.18
2023-04-22T09:25:25.185Z,7.15
2023-04-22T09:27:56.895Z,7.15
2023-04-22T09:30:38.337Z,7.03
2023-04-22T09:33:13.383Z,7.18
2023-04-22T09:35:41.771Z,6.55
2023-04-22T09:38:10.679Z,6.30
2023-04-22T09:40:44.082Z,7.45
2023-04-22T09:43:12.995Z,6.45
2023-04-22T09:45:43.389Z,6.72
2023-04-22T09:48:14.590Z,6.97
2023-04-22T09:50:48.715Z,8.25
2023-04-22T09:53:19.649Z,7.13
2023-04-22T09:55:54.632Z,7.82
2023-04-22T09:58:27.704Z,8.95
2023-04-22T10:01:03.308Z,8.23
2023-04-22T10:03:32.793Z,8.55
2023-04-22T10:06:03.202Z,7.53
2023-04-22T10:08:36.561Z,9.40
2023-04-22T10:11:06.141Z,9.55
2023-04-22T10:13:36.087Z,8.35
2023-04-22T10:16:18.511Z,8.77
2023-04-22T10:18:48.820Z,9.23
2023-04-22T10:21:23.462Z,10.10
2023-04-22T10:24:01.529Z,9.15
2023-04-22T10:26:57.896Z,8.93
2023-04-22T10:29:38.505Z,8.63
2023-04-22T10:32:22.646Z,8.57
2023-04-22T10:35:20.545Z,8.40
2023-04-22T10:38:24.691Z,7.70
2023-04-22T10:41:09.565Z,8.05
2023-04-22T10:44:24.884Z,8.13
2023-04-22T10:46:54.102Z,7.32
2023-04-22T10:49:29.937Z,7.15
2023-04-22T10:52:01.475Z,8.90
2023-04-22T10:54:41.342Z,7.90
2023-04-22T10:57:44.827Z,7.32
2023-04-22T11:00:51.717Z,7.78
2023-04-22T11:03:33.349Z,8.48
2023-04-22T11:06:17.336Z,7.75
2023-04-22T11:08:46.605Z,7.57
2023-04-22T11:11:19.379Z,8.75
2023-04-22T11:14:03.291Z,8.25
2023-04-22T11:16:30.314Z,7.15
2023-04-22T11:18:57.817Z,7.20
2023-04-22T11:21:28.042Z,7.47
2023-04-22T11:24:06.367Z,6.82
2023-04-22T11:26:36.374Z,7.78
2023-04-22T11:29:03.925Z,7.43
2023-04-22T11:31:33.110Z,8.63
2023-04-22T11:34:05.432Z,7.30
2023-04-22T11:36:32.191Z,7.50
2023-04-22T11:38:59.178Z,7.90
2023-04-22T11:41:27.919Z,7.00
2023-04-22T11:44:03.654Z,6.22
2023-04-22T11:47:18.397Z,7.60
2023-04-22T11:59:06.266Z,5.75
2023-04-22T12:01:14.114Z,5.45
2023-04-22T12:03:42.765Z,4.88
2023-04-22T12:06:12.437Z,5.78
2023-04-22T12:08:44.553Z,5.32
2023-04-22T12:11:23.331Z,5.15
2023-04-22T12:17:44.077Z,5.32
2023-04-22T12:20:50.856Z,4.22
2023-04-22T12:23:32.312Z,4.95
2023-04-22T12:26:01.758Z,4.60
2023-04-22T12:28:33.310Z,4.82
2023-04-22T12:31:10.095Z,4.97
2023-04-22T12:33:59.485Z,5.13
2023-04-22T12:37:03.112Z,4.82
2023-04-22T12:42:42.846Z,5.70
2023-04-22T12:45:13.473Z,4.95
2023-04-22T12:47:46.811Z,6.28
2023-04-22T12:50:47.412Z,5.55
2023-04-22T12:53:26.632Z,5.78
2023-04-22T12:56:06.386Z,6.15
2023-04-22T12:59:06.320Z,6.15
2023-04-22T13:01:48.234Z,5.55
2023-04-22T13:04:29.747Z,5.50
2023-04-22T13:17:35.546Z,5.93
2023-04-22T13:23:15.692Z,10.30
2023-04-22T13:26:11.402Z,7.25
2023-04-22T13:29:30.239Z,11.25
2023-04-22T13:31:59.768Z,7.03
2023-04-22T13:34:27.920Z,6.00
2023-04-22T13:37:07.171Z,5.40
2023-04-22T13:39:36.625Z,6.45
2023-04-22T13:42:09.364Z,7.50
2023-04-22T13:44:36.230Z,6.82
2023-04-22T13:47:03.096Z,6.32
2023-04-22T13:49:32.954Z,5.70
2023-04-22T13:51:59.802Z,6.10
2023-04-22T13:54:27.189Z,4.47
2023-04-22T13:56:57.034Z,5.68
2023-04-22T13:59:24.602Z,5.25
2023-04-22T14:01:54.465Z,5.20
2023-04-22T14:04:21.875Z,4.90
2023-04-22T14:06:49.146Z,7.07
2023-04-22T14:09:16.131Z,6.53
2023-04-22T14:11:42.857Z,4.55
2023-04-22T14:14:10.447Z,5.10
2023-04-22T14:16:37.490Z,4.35
2023-04-22T14:19:06.070Z,4.45
2023-04-22T14:21:33.601Z,4.45
2023-04-22T14:24:00.552Z,4.65
2023-04-22T14:26:27.235Z,4.32
2023-04-22T14:28:53.940Z,5.57
2023-04-22T14:31:20.856Z,6.00
2023-04-22T14:33:47.660Z,4.38
2023-04-22T14:36:15.909Z,4.40
2023-04-22T14:38:42.747Z,4.68
2023-04-22T14:41:11.226Z,5.28
2023-04-22T14:43:38.260Z,4.63
2023-04-22T14:46:05.292Z,4.85
2023-04-22T14:48:32.499Z,5.50
2023-04-22T14:51:00.140Z,5.13
2023-04-22T14:53:27.225Z,4.50
2023-04-22T14:55:53.998Z,4.78
2023-04-22T14:58:21.468Z,4.35
2023-04-22T15:00:48.996Z,4.78
2023-04-22T15:03:15.829Z,5.15
2023-04-22T15:05:43.322Z,5.18
2023-04-22T15:08:10.024Z,5.60
2023-04-22T15:10:36.784Z,5.40
2023-04-22T15:13:03.549Z,5.97
2023-04-22T15:15:30.296Z,4.50
2023-04-22T15:17:57.031Z,5.10
2023-04-22T15:20:23.957Z,4.93
2023-04-22T15:22:50.688Z,5.32
2023-04-22T15:25:18.330Z,5.13
2023-04-22T15:27:45.265Z,5.05
2023-04-22T15:30:12.128Z,5.25
2023-04-22T15:32:41.644Z,4.93
2023-04-22T15:35:08.686Z,4.80
2023-04-22T15:37:35.585Z,5.40
2023-04-22T15:40:05.808Z,5.00
2023-04-22T15:42:32.578Z,4.90
2023-04-22T15:44:59.526Z,5.05
2023-04-22T15:47:28.374Z,5.15
2023-04-22T15:49:57.540Z,4.57
2023-04-22T15:52:24.394Z,4.60
2023-04-22T15:54:51.158Z,4.82
2023-04-22T15:57:18.168Z,5.30
2023-04-22T15:59:44.960Z,4.78
2023-04-22T16:02:12.163Z,5.22
2023-04-22T16:04:39.007Z,4.88
2023-04-22T16:07:06.028Z,4.97
2023-04-22T16:09:32.845Z,4.53
2023-04-22T16:11:59.620Z,4.65
2023-04-22T16:14:26.305Z,4.97
2023-04-22T16:16:55.411Z,4.65
2023-04-22T16:19:22.195Z,5.45
2023-04-22T16:21:49.063Z,5.15
2023-04-22T16:24:15.791Z,4.88
2023-04-22T16:26:43.084Z,4.82
2023-04-22T16:29:10.058Z,4.30
2023-04-22T16:31:38.607Z,5.18
2023-04-22T16:34:05.316Z,5.50
2023-04-22T16:36:32.589Z,5.93
2023-04-22T16:38:59.530Z,5.75
2023-04-22T16:41:26.444Z,5.53
2023-04-22T16:43:53.081Z,5.10
2023-04-22T16:46:19.853Z,5.50
2023-04-22T16:48:46.793Z,4.80
2023-04-22T16:51:13.604Z,5.28
2023-04-22T16:53:40.266Z,7.07
2023-04-22T16:56:07.041Z,5.43
2023-04-22T16:58:33.799Z,5.43
2023-04-22T17:01:00.710Z,5.68
2023-04-22T17:03:27.581Z,5.57
2023-04-22T17:05:54.384Z,5.57
2023-04-22T17:08:21.151Z,5.53
2023-04-22T17:10:48.289Z,5.90
2023-04-22T17:13:15.747Z,7.38
2023-04-22T17:15:42.626Z,5.75
2023-04-22T17:18:09.603Z,5.93
2023-04-22T17:20:36.773Z,5.63
2023-04-22T17:23:04.308Z,5.90
2023-04-22T17:25:31.261Z,6.20
2023-04-22T17:27:58.072Z,6.70
2023-04-22T17:30:25.027Z,7.18
2023-04-22T17:32:52.091Z,6.18
2023-04-22T17:35:19.096Z,6.05
2023-04-22T17:37:45.857Z,4.97
2023-04-22T17:40:12.721Z,6.10
2023-04-22T17:42:45.893Z,5.20
2023-04-22T17:45:13.224Z,5.40
2023-04-22T17:47:40.011Z,6.45
2023-04-22T17:50:07.514Z,5.45
2023-04-22T17:52:34.322Z,6.65
2023-04-22T17:55:01.110Z,5.70
2023-04-22T17:57:28.515Z,5.57
2023-04-22T17:59:56.324Z,5.80
2023-04-22T18:02:28.292Z,6.05
2023-04-22T18:04:55.188Z,6.03
2023-04-22T18:07:21.993Z,6.35
2023-04-22T18:09:49.605Z,6.70
2023-04-22T18:12:16.697Z,6.85
2023-04-22T18:14:43.603Z,7.15
2023-04-22T18:17:10.392Z,6.80
2023-04-22T18:19:37.174Z,6.95
2023-04-22T18:22:03.901Z,11.82
2023-04-22T18:24:30.986Z,9.07
2023-04-22T18:26:58.006Z,12.07
2023-04-22T18:29:24.825Z,10.52
2023-04-22T18:31:51.704Z,10.70
2023-04-22T18:34:18.499Z,8.82
2023-04-22T18:36:45.313Z,7.53
2023-04-22T18:39:12.309Z,7.47
2023-04-22T18:41:39.551Z,7.65
2023-04-22T18:44:06.488Z,6.63
2023-04-22T18:46:33.226Z,8.02
2023-04-22T18:49:00.069Z,10.70
2023-04-22T18:51:27.697Z,9.93
2023-04-22T18:53:57.862Z,8.70
2023-04-22T18:56:27.220Z,7.95
2023-04-22T18:58:55.333Z,7.57
2023-04-22T19:01:25.453Z,7.82
2023-04-22T19:04:01.965Z,11.20
2023-04-22T19:06:36.516Z,21.73
2023-04-22T19:09:09.503Z,12.43
2023-04-22T19:11:44.137Z,15.60
2023-04-22T19:14:54.679Z,14.20
2023-04-22T19:17:26.133Z,9.38
2023-04-22T19:19:56.128Z,7.18
2023-04-22T19:22:25.680Z,9.48
2023-04-22T19:24:56.807Z,8.32
2023-04-22T19:27:33.680Z,8.93
2023-04-22T19:30:06.784Z,6.90
2023-04-22T19:32:39.044Z,7.40
2023-04-22T19:35:29.646Z,7.67
2023-04-22T19:38:02.752Z,7.13
2023-04-22T19:40:36.299Z,5.85
2023-04-22T19:43:19.404Z,6.68
2023-04-22T19:45:53.539Z,6.20
2023-04-22T19:48:37.702Z,7.13
2023-04-22T19:51:05.643Z,9.82
2023-04-22T19:53:44.448Z,11.27
2023-04-22T19:56:14.376Z,11.52
2023-04-22T19:58:42.641Z,10.45
2023-04-22T20:01:09.907Z,9.48
2023-04-22T20:03:40.475Z,9.35
2023-04-22T20:06:08.023Z,9.05
2023-04-22T20:08:35.321Z,7.25
2023-04-22T20:11:04.816Z,8.27
2023-04-22T20:13:33.260Z,13.25
2023-04-22T20:16:04.041Z,13.38
2023-04-22T20:18:34.469Z,20.50
2023-04-22T20:21:02.186Z,25.48
2023-04-22T20:23:31.689Z,27.70
2023-04-22T20:26:00.028Z,11.85
2023-04-22T20:28:48.370Z,7.63
2023-04-22T20:31:21.322Z,7.47
2023-04-22T20:36:21.007Z,8.25
2023-04-22T20:38:54.967Z,7.13
2023-04-22T20:41:25.853Z,9.25
2023-04-22T20:43:57.734Z,7.68
2023-04-22T20:46:26.248Z,8.50
2023-04-22T20:48:53.216Z,9.25
2023-04-22T20:51:20.189Z,13.73
2023-04-22T20:53:47.164Z,12.23
2023-04-22T20:56:14.155Z,10.07
2023-04-22T20:58:40.990Z,8.23
2023-04-22T21:01:08.998Z,8.10
2023-04-22T21:03:37.358Z,8.85
2023-04-22T21:06:04.409Z,8.35
2023-04-22T21:08:32.832Z,7.55
2023-04-22T21:11:00.021Z,7.43
2023-04-22T21:13:28.889Z,8.75
2023-04-22T21:16:03.113Z,7.72
2023-04-22T21:18:35.454Z,5.87
2023-04-22T21:21:06.667Z,6.15
2023-04-22T21:23:34.017Z,5.60
2023-04-22T21:26:01.975Z,5.28
2023-04-22T21:28:29.390Z,5.13
2023-04-22T21:30:56.498Z,5.47
2023-04-22T21:33:25.168Z,6.55
2023-04-22T21:35:52.500Z,5.88
2023-04-22T21:38:25.879Z,7.70
2023-04-22T21:41:12.815Z,7.65
2023-04-22T21:43:46.888Z,6.80
2023-04-22T21:46:22.143Z,7.35
2023-04-22T21:48:49.193Z,8.27
2023-04-22T21:51:20.764Z,7.93
2023-04-22T21:53:48.582Z,8.80
2023-04-22T21:56:15.555Z,7.63
2023-04-22T21:58:42.481Z,9.00
2023-04-22T22:01:09.601Z,10.10
2023-04-22T22:03:36.716Z,9.55
2023-04-22T22:06:04.019Z,8.52
2023-04-22T22:08:31.001Z,10.32
2023-04-22T22:10:57.948Z,10.77
2023-04-22T22:13:27.517Z,8.80
2023-04-22T22:15:56.027Z,8.68
2023-04-22T22:18:23.017Z,8.45
2023-04-22T22:20:53.816Z,8.88
2023-04-22T22:23:21.614Z,9.15
2023-04-22T22:25:49.086Z,7.95
2023-04-22T22:28:17.101Z,7.43
2023-04-22T22:30:45.777Z,7.28
2023-04-22T22:33:12.624Z,9.88
2023-04-22T22:35:39.463Z,9.85
2023-04-22T22:38:06.516Z,8.30
2023-04-22T22:40:33.557Z,7.60
2023-04-22T22:43:00.701Z,8.48
2023-04-22T22:45:27.567Z,9.20
2023-04-22T22:47:54.586Z,7.07
2023-04-22T22:50:21.501Z,7.88
2023-04-22T22:52:48.437Z,7.68
2023-04-22T22:55:15.270Z,7.38
2023-04-22T22:57:47.580Z,7.63
2023-04-22T23:00:17.827Z,7.82
2023-04-22T23:02:45.152Z,8.55
2023-04-22T23:05:12.824Z,8.10
2023-04-22T23:07:39.644Z,7.43
2023-04-22T23:10:07.343Z,8.30
2023-04-22T23:12:34.398Z,7.70
2023-04-22T23:15:01.363Z,7.50
2023-04-22T23:17:28.194Z,7.20
2023-04-22T23:19:55.577Z,7.57
2023-04-22T23:22:22.422Z,8.48
2023-04-22T23:24:49.506Z,7.00
2023-04-22T23:27:17.452Z,7.50
2023-04-22T23:29:44.743Z,7.05
2023-04-22T23:32:14.905Z,6.50
2023-04-22T23:34:44.939Z,7.75
2023-04-22T23:37:14.773Z,7.60
2023-04-22T23:39:42.533Z,7.22
2023-04-22T23:42:09.450Z,7.80
2023-04-22T23:44:36.381Z,8.00
2023-04-22T23:47:04.106Z,6.95
2023-04-22T23:49:31.110Z,7.30
2023-04-22T23:51:57.986Z,7.25
2023-04-22T23:54:25.209Z,7.80
2023-04-22T23:56:52.624Z,7.30
2023-04-22T23:59:20.893Z,7.68
